sensor_id;sensor_type;location;lat;lon;timestamp;temperature;humidity
65598;SHT31;52267;51.984;20.956;2024-02-26T00:01:51;3.59;81.73
65598;SHT31;52267;51.984;20.956;2024-02-26T00:04:18;3.52;81.91
65598;SHT31;52267;51.984;20.956;2024-02-26T00:06:45;3.47;82.14
65598;SHT31;52267;51.984;20.956;2024-02-26T00:09:13;3.45;82.23
65598;SHT31;52267;51.984;20.956;2024-02-26T00:11:40;3.48;82.15
65598;SHT31;52267;51.984;20.956;2024-02-26T00:14:07;3.53;81.84
65598;SHT31;52267;51.984;20.956;2024-02-26T00:16:34;3.59;81.56
65598;SHT31;52267;51.984;20.956;2024-02-26T00:19:01;3.57;81.38
65598;SHT31;52267;51.984;20.956;2024-02-26T00:21:28;3.55;81.38
65598;SHT31;52267;51.984;20.956;2024-02-26T00:23:55;3.57;81.31
65598;SHT31;52267;51.984;20.956;2024-02-26T00:26:22;3.56;81.18
65598;SHT31;52267;51.984;20.956;2024-02-26T00:28:49;3.56;81.02
65598;SHT31;52267;51.984;20.956;2024-02-26T00:31:16;3.55;80.88
65598;SHT31;52267;51.984;20.956;2024-02-26T00:33:43;3.53;80.82
65598;SHT31;52267;51.984;20.956;2024-02-26T00:36:10;3.51;80.93
65598;SHT31;52267;51.984;20.956;2024-02-26T00:38:37;3.50;81.10
65598;SHT31;52267;51.984;20.956;2024-02-26T00:41:06;3.44;81.27
65598;SHT31;52267;51.984;20.956;2024-02-26T00:43:33;3.36;81.51
65598;SHT31;52267;51.984;20.956;2024-02-26T00:46:00;3.27;81.72
65598;SHT31;52267;51.984;20.956;2024-02-26T00:48:27;3.28;81.64
65598;SHT31;52267;51.984;20.956;2024-02-26T00:50:54;3.22;81.72
65598;SHT31;52267;51.984;20.956;2024-02-26T00:53:21;3.18;81.95
65598;SHT31;52267;51.984;20.956;2024-02-26T00:55:48;3.14;82.08
65598;SHT31;52267;51.984;20.956;2024-02-26T00:58:15;3.17;82.00
65598;SHT31;52267;51.984;20.956;2024-02-26T01:00:43;3.18;81.79
65598;SHT31;52267;51.984;20.956;2024-02-26T01:03:10;3.18;81.62
65598;SHT31;52267;51.984;20.956;2024-02-26T01:05:37;3.15;81.55
65598;SHT31;52267;51.984;20.956;2024-02-26T01:08:04;3.11;81.57
65598;SHT31;52267;51.984;20.956;2024-02-26T01:10:31;3.08;81.70
65598;SHT31;52267;51.984;20.956;2024-02-26T01:12:59;3.10;81.74
65598;SHT31;52267;51.984;20.956;2024-02-26T01:15:27;3.13;81.53
65598;SHT31;52267;51.984;20.956;2024-02-26T01:17:54;3.15;81.33
65598;SHT31;52267;51.984;20.956;2024-02-26T01:20:21;3.17;81.19
65598;SHT31;52267;51.984;20.956;2024-02-26T01:22:48;3.18;81.02
65598;SHT31;52267;51.984;20.956;2024-02-26T01:25:15;3.19;80.97
65598;SHT31;52267;51.984;20.956;2024-02-26T01:27:42;3.21;80.89
65598;SHT31;52267;51.984;20.956;2024-02-26T01:30:10;3.16;80.87
65598;SHT31;52267;51.984;20.956;2024-02-26T01:32:38;3.16;80.87
65598;SHT31;52267;51.984;20.956;2024-02-26T01:35:05;3.16;80.86
65598;SHT31;52267;51.984;20.956;2024-02-26T01:37:36;3.05;81.06
65598;SHT31;52267;51.984;20.956;2024-02-26T01:40:03;2.96;81.40
65598;SHT31;52267;51.984;20.956;2024-02-26T01:42:33;2.93;81.52
65598;SHT31;52267;51.984;20.956;2024-02-26T01:45:00;2.93;81.55
65598;SHT31;52267;51.984;20.956;2024-02-26T01:47:29;2.87;81.77
65598;SHT31;52267;51.984;20.956;2024-02-26T01:49:56;2.83;81.97
65598;SHT31;52267;51.984;20.956;2024-02-26T01:52:24;2.82;82.03
65598;SHT31;52267;51.984;20.956;2024-02-26T01:54:51;2.83;81.98
65598;SHT31;52267;51.984;20.956;2024-02-26T01:57:18;2.79;81.81
65598;SHT31;52267;51.984;20.956;2024-02-26T01:59:45;2.71;81.91
65598;SHT31;52267;51.984;20.956;2024-02-26T02:02:12;2.64;82.02
65598;SHT31;52267;51.984;20.956;2024-02-26T02:04:41;2.57;82.27
65598;SHT31;52267;51.984;20.956;2024-02-26T02:07:08;2.60;82.29
65598;SHT31;52267;51.984;20.956;2024-02-26T02:09:35;2.61;82.26
65598;SHT31;52267;51.984;20.956;2024-02-26T02:12:03;2.62;82.34
65598;SHT31;52267;51.984;20.956;2024-02-26T02:14:30;2.64;82.46
65598;SHT31;52267;51.984;20.956;2024-02-26T02:16:57;2.70;82.40
65598;SHT31;52267;51.984;20.956;2024-02-26T02:19:25;2.82;82.31
65598;SHT31;52267;51.984;20.956;2024-02-26T02:21:52;2.91;82.19
65598;SHT31;52267;51.984;20.956;2024-02-26T02:24:19;2.90;82.18
65598;SHT31;52267;51.984;20.956;2024-02-26T02:26:46;2.90;82.24
65598;SHT31;52267;51.984;20.956;2024-02-26T02:29:13;2.91;82.28
65598;SHT31;52267;51.984;20.956;2024-02-26T02:31:41;2.88;82.38
65598;SHT31;52267;51.984;20.956;2024-02-26T02:34:09;2.74;82.59
65598;SHT31;52267;51.984;20.956;2024-02-26T02:36:47;2.67;82.65
65598;SHT31;52267;51.984;20.956;2024-02-26T02:39:17;2.65;82.77
65598;SHT31;52267;51.984;20.956;2024-02-26T02:41:44;2.69;83.64
65598;SHT31;52267;51.984;20.956;2024-02-26T02:44:11;2.78;85.05
65598;SHT31;52267;51.984;20.956;2024-02-26T02:46:41;2.85;86.00
65598;SHT31;52267;51.984;20.956;2024-02-26T02:49:09;2.86;85.73
65598;SHT31;52267;51.984;20.956;2024-02-26T02:51:37;2.79;85.19
65598;SHT31;52267;51.984;20.956;2024-02-26T02:54:04;2.82;84.77
65598;SHT31;52267;51.984;20.956;2024-02-26T02:56:31;2.90;84.34
65598;SHT31;52267;51.984;20.956;2024-02-26T02:58:58;2.89;83.95
65598;SHT31;52267;51.984;20.956;2024-02-26T03:01:25;2.83;83.76
65598;SHT31;52267;51.984;20.956;2024-02-26T03:03:52;2.80;83.66
65598;SHT31;52267;51.984;20.956;2024-02-26T03:06:19;2.73;83.63
65598;SHT31;52267;51.984;20.956;2024-02-26T03:08:47;2.73;83.67
65598;SHT31;52267;51.984;20.956;2024-02-26T03:11:14;2.71;83.62
65598;SHT31;52267;51.984;20.956;2024-02-26T03:13:42;2.65;83.74
65598;SHT31;52267;51.984;20.956;2024-02-26T03:16:09;2.63;83.79
65598;SHT31;52267;51.984;20.956;2024-02-26T03:18:38;2.60;83.80
65598;SHT31;52267;51.984;20.956;2024-02-26T03:21:06;2.59;83.87
65598;SHT31;52267;51.984;20.956;2024-02-26T03:23:34;2.66;83.71
65598;SHT31;52267;51.984;20.956;2024-02-26T03:26:03;2.71;83.61
65598;SHT31;52267;51.984;20.956;2024-02-26T03:28:31;2.78;83.48
65598;SHT31;52267;51.984;20.956;2024-02-26T03:31:01;2.80;83.37
65598;SHT31;52267;51.984;20.956;2024-02-26T03:33:28;2.82;83.32
65598;SHT31;52267;51.984;20.956;2024-02-26T03:35:55;2.86;83.30
65598;SHT31;52267;51.984;20.956;2024-02-26T03:38:22;2.82;83.32
65598;SHT31;52267;51.984;20.956;2024-02-26T03:40:49;2.85;83.36
65598;SHT31;52267;51.984;20.956;2024-02-26T03:43:16;2.90;83.29
65598;SHT31;52267;51.984;20.956;2024-02-26T03:45:44;2.83;83.31
65598;SHT31;52267;51.984;20.956;2024-02-26T03:48:11;2.80;83.44
65598;SHT31;52267;51.984;20.956;2024-02-26T03:50:38;2.81;83.44
65598;SHT31;52267;51.984;20.956;2024-02-26T03:53:05;2.85;83.29
65598;SHT31;52267;51.984;20.956;2024-02-26T03:55:32;2.85;83.15
65598;SHT31;52267;51.984;20.956;2024-02-26T03:57:59;2.87;83.09
65598;SHT31;52267;51.984;20.956;2024-02-26T04:00:26;2.94;82.99
65598;SHT31;52267;51.984;20.956;2024-02-26T04:02:55;3.01;82.79
65598;SHT31;52267;51.984;20.956;2024-02-26T04:05:22;3.04;82.59
65598;SHT31;52267;51.984;20.956;2024-02-26T04:07:49;3.02;82.44
65598;SHT31;52267;51.984;20.956;2024-02-26T04:10:16;2.87;82.57
65598;SHT31;52267;51.984;20.956;2024-02-26T04:12:43;2.78;82.89
65598;SHT31;52267;51.984;20.956;2024-02-26T04:15:10;2.69;83.22
65598;SHT31;52267;51.984;20.956;2024-02-26T04:17:37;2.64;83.45
65598;SHT31;52267;51.984;20.956;2024-02-26T04:20:05;2.68;83.49
65598;SHT31;52267;51.984;20.956;2024-02-26T04:22:33;2.71;83.29
65598;SHT31;52267;51.984;20.956;2024-02-26T04:25:00;2.68;83.22
65598;SHT31;52267;51.984;20.956;2024-02-26T04:27:27;2.66;83.30
65598;SHT31;52267;51.984;20.956;2024-02-26T04:29:54;2.69;83.33
65598;SHT31;52267;51.984;20.956;2024-02-26T04:32:21;2.70;83.37
65598;SHT31;52267;51.984;20.956;2024-02-26T04:34:48;2.70;83.37
65598;SHT31;52267;51.984;20.956;2024-02-26T04:37:15;2.66;83.37
65598;SHT31;52267;51.984;20.956;2024-02-26T04:39:42;2.68;83.46
65598;SHT31;52267;51.984;20.956;2024-02-26T04:42:09;2.65;83.46
65598;SHT31;52267;51.984;20.956;2024-02-26T04:44:36;2.62;83.43
65598;SHT31;52267;51.984;20.956;2024-02-26T04:47:03;2.71;83.33
65598;SHT31;52267;51.984;20.956;2024-02-26T04:49:31;2.70;83.28
65598;SHT31;52267;51.984;20.956;2024-02-26T04:51:57;2.64;83.44
65598;SHT31;52267;51.984;20.956;2024-02-26T04:54:24;2.63;83.50
65598;SHT31;52267;51.984;20.956;2024-02-26T04:56:51;2.65;83.47
65598;SHT31;52267;51.984;20.956;2024-02-26T04:59:18;2.67;83.29
65598;SHT31;52267;51.984;20.956;2024-02-26T05:01:45;2.70;83.23
65598;SHT31;52267;51.984;20.956;2024-02-26T05:04:12;2.73;83.11
65598;SHT31;52267;51.984;20.956;2024-02-26T05:06:39;2.70;83.02
65598;SHT31;52267;51.984;20.956;2024-02-26T05:09:06;2.65;83.09
65598;SHT31;52267;51.984;20.956;2024-02-26T05:11:33;2.65;83.09
65598;SHT31;52267;51.984;20.956;2024-02-26T05:14:01;2.62;83.02
65598;SHT31;52267;51.984;20.956;2024-02-26T05:16:29;2.56;83.07
65598;SHT31;52267;51.984;20.956;2024-02-26T05:18:57;2.56;83.15
65598;SHT31;52267;51.984;20.956;2024-02-26T05:21:24;2.60;83.01
65598;SHT31;52267;51.984;20.956;2024-02-26T05:23:51;2.64;82.82
65598;SHT31;52267;51.984;20.956;2024-02-26T05:26:19;2.64;82.64
65598;SHT31;52267;51.984;20.956;2024-02-26T05:28:48;2.60;82.61
65598;SHT31;52267;51.984;20.956;2024-02-26T05:31:16;2.51;82.78
65598;SHT31;52267;51.984;20.956;2024-02-26T05:33:44;2.48;82.99
65598;SHT31;52267;51.984;20.956;2024-02-26T05:36:17;2.49;83.14
65598;SHT31;52267;51.984;20.956;2024-02-26T05:38:46;2.46;83.11
65598;SHT31;52267;51.984;20.956;2024-02-26T05:41:13;2.42;83.21
65598;SHT31;52267;51.984;20.956;2024-02-26T05:43:49;2.44;83.34
65598;SHT31;52267;51.984;20.956;2024-02-26T05:46:17;2.43;83.37
65598;SHT31;52267;51.984;20.956;2024-02-26T05:48:49;2.50;83.41
65598;SHT31;52267;51.984;20.956;2024-02-26T05:51:18;2.60;83.29
65598;SHT31;52267;51.984;20.956;2024-02-26T05:53:45;2.62;83.26
65598;SHT31;52267;51.984;20.956;2024-02-26T05:56:23;2.64;83.36
65598;SHT31;52267;51.984;20.956;2024-02-26T05:58:50;2.71;83.45
65598;SHT31;52267;51.984;20.956;2024-02-26T06:01:18;2.77;83.45
65598;SHT31;52267;51.984;20.956;2024-02-26T06:03:46;2.80;83.57
65598;SHT31;52267;51.984;20.956;2024-02-26T06:06:13;2.81;83.75
65598;SHT31;52267;51.984;20.956;2024-02-26T06:08:41;2.87;83.94
65598;SHT31;52267;51.984;20.956;2024-02-26T06:11:08;3.03;83.88
65598;SHT31;52267;51.984;20.956;2024-02-26T06:13:36;3.17;83.71
65598;SHT31;52267;51.984;20.956;2024-02-26T06:16:03;3.31;83.63
65598;SHT31;52267;51.984;20.956;2024-02-26T06:18:31;3.46;83.49
65598;SHT31;52267;51.984;20.956;2024-02-26T06:20:59;3.57;83.48
65598;SHT31;52267;51.984;20.956;2024-02-26T06:23:26;3.63;83.67
65598;SHT31;52267;51.984;20.956;2024-02-26T06:25:53;3.66;83.86
65598;SHT31;52267;51.984;20.956;2024-02-26T06:28:20;3.72;84.06
65598;SHT31;52267;51.984;20.956;2024-02-26T06:30:47;3.82;83.99
65598;SHT31;52267;51.984;20.956;2024-02-26T06:33:14;3.83;83.96
65598;SHT31;52267;51.984;20.956;2024-02-26T06:35:41;3.85;83.99
65598;SHT31;52267;51.984;20.956;2024-02-26T06:38:08;3.88;84.02
65598;SHT31;52267;51.984;20.956;2024-02-26T06:40:38;3.98;84.08
65598;SHT31;52267;51.984;20.956;2024-02-26T06:43:05;4.17;83.99
65598;SHT31;52267;51.984;20.956;2024-02-26T06:45:32;4.28;83.87
65598;SHT31;52267;51.984;20.956;2024-02-26T06:47:59;4.36;83.90
65598;SHT31;52267;51.984;20.956;2024-02-26T06:50:26;4.48;84.06
65598;SHT31;52267;51.984;20.956;2024-02-26T06:52:53;4.57;84.10
65598;SHT31;52267;51.984;20.956;2024-02-26T06:55:20;4.70;84.20
65598;SHT31;52267;51.984;20.956;2024-02-26T06:57:47;4.82;84.55
65598;SHT31;52267;51.984;20.956;2024-02-26T07:00:15;4.94;85.13
65598;SHT31;52267;51.984;20.956;2024-02-26T07:02:43;5.08;85.44
65598;SHT31;52267;51.984;20.956;2024-02-26T07:05:10;5.25;85.47
65598;SHT31;52267;51.984;20.956;2024-02-26T07:07:37;5.41;85.67
65598;SHT31;52267;51.984;20.956;2024-02-26T07:10:05;5.55;85.96
65598;SHT31;52267;51.984;20.956;2024-02-26T07:12:32;5.70;86.16
65598;SHT31;52267;51.984;20.956;2024-02-26T07:15:00;5.86;86.14
65598;SHT31;52267;51.984;20.956;2024-02-26T07:17:27;6.03;86.11
65598;SHT31;52267;51.984;20.956;2024-02-26T07:19:54;6.21;86.93
65598;SHT31;52267;51.984;20.956;2024-02-26T07:22:21;6.39;86.68
65598;SHT31;52267;51.984;20.956;2024-02-26T07:24:48;6.57;87.30
65598;SHT31;52267;51.984;20.956;2024-02-26T07:27:15;6.73;87.09
65598;SHT31;52267;51.984;20.956;2024-02-26T07:29:44;6.89;86.83
65598;SHT31;52267;51.984;20.956;2024-02-26T07:32:11;7.09;87.31
65598;SHT31;52267;51.984;20.956;2024-02-26T07:34:38;7.28;87.15
65598;SHT31;52267;51.984;20.956;2024-02-26T07:37:08;7.45;87.00
65598;SHT31;52267;51.984;20.956;2024-02-26T07:39:35;7.61;86.42
65598;SHT31;52267;51.984;20.956;2024-02-26T07:42:03;7.76;86.26
65598;SHT31;52267;51.984;20.956;2024-02-26T07:44:30;7.92;86.51
65598;SHT31;52267;51.984;20.956;2024-02-26T07:46:57;8.09;86.32
65598;SHT31;52267;51.984;20.956;2024-02-26T07:49:25;8.26;85.74
65598;SHT31;52267;51.984;20.956;2024-02-26T07:51:52;8.41;85.62
65598;SHT31;52267;51.984;20.956;2024-02-26T07:54:19;8.58;85.79
65598;SHT31;52267;51.984;20.956;2024-02-26T07:56:46;8.72;85.65
65598;SHT31;52267;51.984;20.956;2024-02-26T07:59:13;8.84;85.49
65598;SHT31;52267;51.984;20.956;2024-02-26T08:01:41;8.94;85.51
65598;SHT31;52267;51.984;20.956;2024-02-26T08:04:08;9.06;85.18
65598;SHT31;52267;51.984;20.956;2024-02-26T08:06:35;9.17;84.98
65598;SHT31;52267;51.984;20.956;2024-02-26T08:09:02;9.28;84.99
65598;SHT31;52267;51.984;20.956;2024-02-26T08:11:30;9.41;85.00
65598;SHT31;52267;51.984;20.956;2024-02-26T08:13:57;9.55;84.80
65598;SHT31;52267;51.984;20.956;2024-02-26T08:16:25;9.69;84.48
65598;SHT31;52267;51.984;20.956;2024-02-26T08:18:52;9.80;84.24
65598;SHT31;52267;51.984;20.956;2024-02-26T08:21:20;9.90;84.06
65598;SHT31;52267;51.984;20.956;2024-02-26T08:23:47;10.04;83.92
65598;SHT31;52267;51.984;20.956;2024-02-26T08:26:14;10.23;83.63
65598;SHT31;52267;51.984;20.956;2024-02-26T08:28:41;10.37;83.38
65598;SHT31;52267;51.984;20.956;2024-02-26T08:31:08;10.42;83.09
65598;SHT31;52267;51.984;20.956;2024-02-26T08:33:35;10.52;82.89
65598;SHT31;52267;51.984;20.956;2024-02-26T08:36:05;10.57;82.64
65598;SHT31;52267;51.984;20.956;2024-02-26T08:38:33;10.52;82.53
65598;SHT31;52267;51.984;20.956;2024-02-26T08:41:02;10.54;82.55
65598;SHT31;52267;51.984;20.956;2024-02-26T08:43:29;10.57;82.72
65598;SHT31;52267;51.984;20.956;2024-02-26T08:45:56;10.67;82.63
65598;SHT31;52267;51.984;20.956;2024-02-26T08:48:24;10.72;82.50
65598;SHT31;52267;51.984;20.956;2024-02-26T08:50:51;10.81;82.42
65598;SHT31;52267;51.984;20.956;2024-02-26T08:53:18;10.77;81.93
65598;SHT31;52267;51.984;20.956;2024-02-26T08:55:45;10.73;82.07
65598;SHT31;52267;51.984;20.956;2024-02-26T08:58:12;10.73;82.14
65598;SHT31;52267;51.984;20.956;2024-02-26T09:00:39;10.77;82.16
65598;SHT31;52267;51.984;20.956;2024-02-26T09:03:06;10.74;82.04
65598;SHT31;52267;51.984;20.956;2024-02-26T09:05:34;10.84;82.06
65598;SHT31;52267;51.984;20.956;2024-02-26T09:08:01;10.91;81.82
65598;SHT31;52267;51.984;20.956;2024-02-26T09:10:29;10.91;81.69
65598;SHT31;52267;51.984;20.956;2024-02-26T09:12:56;10.99;81.72
65598;SHT31;52267;51.984;20.956;2024-02-26T09:15:23;11.08;81.66
65598;SHT31;52267;51.984;20.956;2024-02-26T09:17:50;11.19;81.56
65598;SHT31;52267;51.984;20.956;2024-02-26T09:20:18;11.30;81.41
65598;SHT31;52267;51.984;20.956;2024-02-26T09:22:46;11.30;80.86
65598;SHT31;52267;51.984;20.956;2024-02-26T09:25:13;11.29;80.89
65598;SHT31;52267;51.984;20.956;2024-02-26T09:27:42;11.35;81.07
65598;SHT31;52267;51.984;20.956;2024-02-26T09:30:10;11.35;80.95
65598;SHT31;52267;51.984;20.956;2024-02-26T09:32:39;11.35;81.05
65598;SHT31;52267;51.984;20.956;2024-02-26T09:35:07;11.31;80.81
65598;SHT31;52267;51.984;20.956;2024-02-26T09:37:34;11.26;80.99
65598;SHT31;52267;51.984;20.956;2024-02-26T09:40:03;11.23;81.14
65598;SHT31;52267;51.984;20.956;2024-02-26T09:42:32;11.19;81.07
65598;SHT31;52267;51.984;20.956;2024-02-26T09:45:03;11.14;81.27
65598;SHT31;52267;51.984;20.956;2024-02-26T09:47:38;11.11;81.29
65598;SHT31;52267;51.984;20.956;2024-02-26T09:50:06;11.06;81.29
65598;SHT31;52267;51.984;20.956;2024-02-26T09:52:36;10.98;81.28
65598;SHT31;52267;51.984;20.956;2024-02-26T09:55:05;10.94;81.40
65598;SHT31;52267;51.984;20.956;2024-02-26T09:57:36;10.89;81.46
65598;SHT31;52267;51.984;20.956;2024-02-26T10:00:04;10.90;81.57
65598;SHT31;52267;51.984;20.956;2024-02-26T10:02:37;10.90;81.47
65598;SHT31;52267;51.984;20.956;2024-02-26T10:05:05;10.88;81.59
65598;SHT31;52267;51.984;20.956;2024-02-26T10:07:36;10.85;81.66
65598;SHT31;52267;51.984;20.956;2024-02-26T10:10:04;10.92;81.60
65598;SHT31;52267;51.984;20.956;2024-02-26T10:12:32;10.97;81.45
65598;SHT31;52267;51.984;20.956;2024-02-26T10:14:59;10.95;81.56
65598;SHT31;52267;51.984;20.956;2024-02-26T10:17:26;10.90;81.65
65598;SHT31;52267;51.984;20.956;2024-02-26T10:19:54;10.87;81.83
65598;SHT31;52267;51.984;20.956;2024-02-26T10:22:23;10.88;81.88
65598;SHT31;52267;51.984;20.956;2024-02-26T10:24:50;10.87;81.75
65598;SHT31;52267;51.984;20.956;2024-02-26T10:27:17;10.85;81.85
65598;SHT31;52267;51.984;20.956;2024-02-26T10:29:45;10.88;81.79
65598;SHT31;52267;51.984;20.956;2024-02-26T10:32:13;10.87;81.51
65598;SHT31;52267;51.984;20.956;2024-02-26T10:34:40;10.91;81.53
65598;SHT31;52267;51.984;20.956;2024-02-26T10:37:08;10.95;81.47
65598;SHT31;52267;51.984;20.956;2024-02-26T10:39:36;10.98;81.00
65598;SHT31;52267;51.984;20.956;2024-02-26T10:42:04;11.09;81.10
65598;SHT31;52267;51.984;20.956;2024-02-26T10:44:36;11.24;80.96
65598;SHT31;52267;51.984;20.956;2024-02-26T10:47:03;11.34;80.70
65598;SHT31;52267;51.984;20.956;2024-02-26T10:49:30;11.39;80.13
65598;SHT31;52267;51.984;20.956;2024-02-26T10:51:59;11.46;80.09
65598;SHT31;52267;51.984;20.956;2024-02-26T10:54:30;11.59;80.27
65598;SHT31;52267;51.984;20.956;2024-02-26T10:57:00;11.71;79.66
65598;SHT31;52267;51.984;20.956;2024-02-26T10:59:28;11.74;79.32
65598;SHT31;52267;51.984;20.956;2024-02-26T11:01:56;11.94;78.72
65598;SHT31;52267;51.984;20.956;2024-02-26T11:04:24;12.19;78.76
65598;SHT31;52267;51.984;20.956;2024-02-26T11:06:54;12.34;78.50
65598;SHT31;52267;51.984;20.956;2024-02-26T11:09:24;12.44;77.75
65598;SHT31;52267;51.984;20.956;2024-02-26T11:11:51;12.52;76.01
65598;SHT31;52267;51.984;20.956;2024-02-26T11:14:21;12.68;76.34
65598;SHT31;52267;51.984;20.956;2024-02-26T11:16:52;12.88;75.85
65598;SHT31;52267;51.984;20.956;2024-02-26T11:19:22;13.03;75.39
65598;SHT31;52267;51.984;20.956;2024-02-26T11:21:52;13.05;75.94
65598;SHT31;52267;51.984;20.956;2024-02-26T11:24:19;12.98;75.98
65598;SHT31;52267;51.984;20.956;2024-02-26T11:26:47;13.05;75.08
65598;SHT31;52267;51.984;20.956;2024-02-26T11:29:25;13.19;74.95
65598;SHT31;52267;51.984;20.956;2024-02-26T11:31:59;13.21;74.75
65598;SHT31;52267;51.984;20.956;2024-02-26T11:34:27;13.28;74.40
65598;SHT31;52267;51.984;20.956;2024-02-26T11:36:55;13.45;74.48
65598;SHT31;52267;51.984;20.956;2024-02-26T11:39:22;13.58;74.09
65598;SHT31;52267;51.984;20.956;2024-02-26T11:41:50;13.81;73.86
65598;SHT31;52267;51.984;20.956;2024-02-26T11:44:28;14.02;72.51
65598;SHT31;52267;51.984;20.956;2024-02-26T11:46:56;14.07;70.01
65598;SHT31;52267;51.984;20.956;2024-02-26T11:51:55;14.11;69.95
65598;SHT31;52267;51.984;20.956;2024-02-26T11:57:40;13.94;69.75
65598;SHT31;52267;51.984;20.956;2024-02-26T12:03:07;14.04;70.64
65598;SHT31;52267;51.984;20.956;2024-02-26T12:05:30;14.14;70.22
65598;SHT31;52267;51.984;20.956;2024-02-26T12:08:03;14.25;70.80
65598;SHT31;52267;51.984;20.956;2024-02-26T12:10:37;14.40;71.08
65598;SHT31;52267;51.984;20.956;2024-02-26T12:15:57;14.64;68.93
65598;SHT31;52267;51.984;20.956;2024-02-26T12:18:26;14.79;68.54
65598;SHT31;52267;51.984;20.956;2024-02-26T12:21:00;14.89;68.55
65598;SHT31;52267;51.984;20.956;2024-02-26T12:23:29;14.93;67.74
65598;SHT31;52267;51.984;20.956;2024-02-26T12:26:00;14.78;67.07
65598;SHT31;52267;51.984;20.956;2024-02-26T12:28:30;14.72;67.37
65598;SHT31;52267;51.984;20.956;2024-02-26T12:30:58;14.80;67.42
65598;SHT31;52267;51.984;20.956;2024-02-26T12:33:26;14.82;67.15
65598;SHT31;52267;51.984;20.956;2024-02-26T12:35:54;14.81;66.56
65598;SHT31;52267;51.984;20.956;2024-02-26T12:38:21;14.83;66.40
65598;SHT31;52267;51.984;20.956;2024-02-26T12:40:48;14.75;66.21
65598;SHT31;52267;51.984;20.956;2024-02-26T12:43:15;14.85;66.61
65598;SHT31;52267;51.984;20.956;2024-02-26T12:45:43;14.96;66.62
65598;SHT31;52267;51.984;20.956;2024-02-26T12:48:12;14.98;66.19
65598;SHT31;52267;51.984;20.956;2024-02-26T12:50:44;15.00;65.29
65598;SHT31;52267;51.984;20.956;2024-02-26T12:53:13;14.90;64.83
65598;SHT31;52267;51.984;20.956;2024-02-26T12:55:41;14.83;65.23
65598;SHT31;52267;51.984;20.956;2024-02-26T12:58:08;14.69;64.59
65598;SHT31;52267;51.984;20.956;2024-02-26T13:00:36;14.61;66.38
65598;SHT31;52267;51.984;20.956;2024-02-26T13:03:05;14.53;66.74
65598;SHT31;52267;51.984;20.956;2024-02-26T13:05:32;14.48;67.19
65598;SHT31;52267;51.984;20.956;2024-02-26T13:08:00;14.41;66.53
65598;SHT31;52267;51.984;20.956;2024-02-26T13:10:28;14.44;66.93
65598;SHT31;52267;51.984;20.956;2024-02-26T13:12:56;14.47;66.13
65598;SHT31;52267;51.984;20.956;2024-02-26T13:15:23;14.51;65.73
65598;SHT31;52267;51.984;20.956;2024-02-26T13:17:51;14.57;66.01
65598;SHT31;52267;51.984;20.956;2024-02-26T13:20:26;14.59;66.12
65598;SHT31;52267;51.984;20.956;2024-02-26T13:23:00;14.50;66.37
65598;SHT31;52267;51.984;20.956;2024-02-26T13:25:32;14.35;66.57
65598;SHT31;52267;51.984;20.956;2024-02-26T13:28:07;14.24;66.92
65598;SHT31;52267;51.984;20.956;2024-02-26T13:30:52;14.18;67.11
65598;SHT31;52267;51.984;20.956;2024-02-26T13:33:25;14.14;67.37
65598;SHT31;52267;51.984;20.956;2024-02-26T13:35:54;14.13;67.53
65598;SHT31;52267;51.984;20.956;2024-02-26T13:38:23;14.10;68.01
65598;SHT31;52267;51.984;20.956;2024-02-26T13:40:51;14.06;67.91
65598;SHT31;52267;51.984;20.956;2024-02-26T13:43:18;14.04;68.46
65598;SHT31;52267;51.984;20.956;2024-02-26T13:45:46;14.05;68.58
65598;SHT31;52267;51.984;20.956;2024-02-26T13:48:14;14.01;68.77
65598;SHT31;52267;51.984;20.956;2024-02-26T13:50:41;14.00;68.47
65598;SHT31;52267;51.984;20.956;2024-02-26T13:53:10;13.98;68.67
65598;SHT31;52267;51.984;20.956;2024-02-26T13:55:39;13.98;68.76
65598;SHT31;52267;51.984;20.956;2024-02-26T13:58:11;13.99;68.98
65598;SHT31;52267;51.984;20.956;2024-02-26T14:00:42;14.01;69.02
65598;SHT31;52267;51.984;20.956;2024-02-26T14:03:09;14.05;69.03
65598;SHT31;52267;51.984;20.956;2024-02-26T14:05:37;14.04;69.07
65598;SHT31;52267;51.984;20.956;2024-02-26T14:08:04;14.01;69.20
65598;SHT31;52267;51.984;20.956;2024-02-26T14:10:31;13.98;69.49
65598;SHT31;52267;51.984;20.956;2024-02-26T14:12:59;13.99;69.86
65598;SHT31;52267;51.984;20.956;2024-02-26T14:15:27;14.02;69.93
65598;SHT31;52267;51.984;20.956;2024-02-26T14:17:55;14.00;69.59
65598;SHT31;52267;51.984;20.956;2024-02-26T14:20:25;13.99;69.71
65598;SHT31;52267;51.984;20.956;2024-02-26T14:22:53;13.97;69.66
65598;SHT31;52267;51.984;20.956;2024-02-26T14:25:20;13.97;69.79
65598;SHT31;52267;51.984;20.956;2024-02-26T14:27:48;13.97;69.47
65598;SHT31;52267;51.984;20.956;2024-02-26T14:30:16;13.88;69.07
65598;SHT31;52267;51.984;20.956;2024-02-26T14:32:43;13.85;69.50
65598;SHT31;52267;51.984;20.956;2024-02-26T14:35:10;13.80;69.52
65598;SHT31;52267;51.984;20.956;2024-02-26T14:37:38;13.73;69.73
65598;SHT31;52267;51.984;20.956;2024-02-26T14:40:05;13.70;70.12
65598;SHT31;52267;51.984;20.956;2024-02-26T14:42:34;13.64;70.15
65598;SHT31;52267;51.984;20.956;2024-02-26T14:45:02;13.59;70.46
65598;SHT31;52267;51.984;20.956;2024-02-26T14:47:36;13.60;70.70
65598;SHT31;52267;51.984;20.956;2024-02-26T14:50:03;13.61;70.80
65598;SHT31;52267;51.984;20.956;2024-02-26T14:52:31;13.59;70.86
65598;SHT31;52267;51.984;20.956;2024-02-26T14:54:58;13.59;71.13
65598;SHT31;52267;51.984;20.956;2024-02-26T14:57:26;13.55;71.20
65598;SHT31;52267;51.984;20.956;2024-02-26T14:59:53;13.52;71.31
65598;SHT31;52267;51.984;20.956;2024-02-26T15:02:20;13.50;71.33
65598;SHT31;52267;51.984;20.956;2024-02-26T15:04:47;13.46;71.54
65598;SHT31;52267;51.984;20.956;2024-02-26T15:07:14;13.39;71.78
65598;SHT31;52267;51.984;20.956;2024-02-26T15:09:41;13.36;71.96
65598;SHT31;52267;51.984;20.956;2024-02-26T15:12:08;13.31;72.04
65598;SHT31;52267;51.984;20.956;2024-02-26T15:14:36;13.28;72.14
65598;SHT31;52267;51.984;20.956;2024-02-26T15:17:03;13.23;72.27
65598;SHT31;52267;51.984;20.956;2024-02-26T15:19:31;13.19;72.44
65598;SHT31;52267;51.984;20.956;2024-02-26T15:21:58;13.13;72.67
65598;SHT31;52267;51.984;20.956;2024-02-26T15:24:25;13.07;72.83
65598;SHT31;52267;51.984;20.956;2024-02-26T15:26:53;13.02;72.98
65598;SHT31;52267;51.984;20.956;2024-02-26T15:29:20;12.97;73.14
65598;SHT31;52267;51.984;20.956;2024-02-26T15:31:47;12.93;73.24
65598;SHT31;52267;51.984;20.956;2024-02-26T15:34:15;12.87;73.59
65598;SHT31;52267;51.984;20.956;2024-02-26T15:36:42;12.79;74.11
65598;SHT31;52267;51.984;20.956;2024-02-26T15:39:09;12.69;74.36
65598;SHT31;52267;51.984;20.956;2024-02-26T15:41:36;12.61;74.55